Share

Fort Yukon, AK (99740)

8:50 PM AKDT on April 23, 2014 (GMT -0800)
Fort Yukon (PFYU) Elev 430 ft | 66.57 °N, 145.27 °W | Change Station

Current weather conditions updated 14 minutes ago

Clear
Clear
37 °F
Feels Like 31 °F
N
9
Wind Variable Wind from NNE
Sunrise 5:28 AM
Sunset 9:57 PM
Moon Waning Crescent

Tomorrow is forecast to be Warmer than today.

Pressure 29.79 in
Visibility 10.0 miles
Clouds Clear
Windchill 31 °F
Dew Point 21 °F
Humidity 52%
Rainfall 0.00 in
Snow Depth 14 in
UV 0 out of 16
Pollen Not available.
Air Quality Not available.
Flu Activity Sporadic
METAR PFYU 240436Z 03008KT 10SM CLR 03/M06 A2979 RMK AO1

More Conditions Fewer Conditions

Pressure 29.79 in
Visibility 10.0 miles
Clouds Clear
Windchill 31 °F
Dew Point 21 °F
Humidity 52%
Rainfall 0.00 in
Snow Depth 14 in
UV 0 out of 16
Pollen Not available.
Air Quality Not available.
Flu Activity Sporadic
METAR PFYU 240436Z 03008KT 10SM CLR 03/M06 A2979 RMK AO1

More Conditions Fewer Conditions

10-Day Weather Forecast

Almanac

Astronomy

Apr. 23, 2014 Rise Set
Actual Time 5:28 AM AKDT 9:57 PM AKDT
Civil Twilight 4:16 AM AKDT 11:10 PM AKDT
Nautical Twilight 2:14 AM AKDT 1:09 AM AKDT
Astronomical Twilight Sun does not rise Sun does not rise
Moon 4:37 AM AKDT (4/23) 1:52 PM AKDT (4/23)
Length of Visible Light 18h 54m
Length of Day
16h 29m
Tomorrow will be 7m 42s longer.
Waning Crescent, 29% of the Moon is Illuminated
Apr 24
Waning Crescent
Apr 29
New
May 6
First Quarter
May 14
Full
May 21
Last Quarter

Yesterday's Extremes

State Highs State Lows

Community

  • Stacked
    Stacked
  • Balance
    Balance
  • Nestled In
    Nestled In
  • Stunning Sunrise
    Stunning Sunrise
  • spring flowers
    spring flowers

WunderPhotos

Upload Photos

1,704,562 photos uploaded!

WunderBlogs® & News

Nearby

Snow Depth

Station Depth Elevation
Fort Yukon 14 in 430 ft
Eagle Summit 11 in 3650 ft
Mt. Ryan 20 in 2800 ft
Monument Creek 9 in 1850 ft
Little Chena Ridge 6 in 2000 ft

Coastal Water Temperatures

Place Temperature
No Stations Reporting

Earthquake Activity

City Distance Mag. Time & Date
No recent earthquake activity has been reported nearby.
Minimum magnitude displayed is 2.5.

Nearby Weather Stations

Station Location Temp. Windchill Dew Point Humidity Wind Precip. Elev Updated Type
RAWS FT. YUKON AK, Chalkyitsik, AK 42 °F 38 °F 22 °F 44% North  at  6 mph 0.00 in / hr 464 ft 7:52 PM AKDT MADIS
MesoWest FORT YUKON , Fort Yukon, AK 41 °F 41 °F 19 °F 41% North  at  - 0.00 in / hr 430 ft 7:00 PM AKDT MADIS

Show More Stations Show Fewer Stations

What do you think?

We're not finished. Please let us know what you like, what you don't like, and what you are still missing.